createdAt,value
2019-06-20T00:00:48.829Z,47.49
2019-06-20T00:01:48.845Z,47.59
2019-06-20T00:02:48.804Z,47.69
2019-06-20T00:03:49.223Z,48.28
2019-06-20T00:04:48.841Z,48.38
2019-06-20T00:05:48.791Z,48.28
2019-06-20T00:06:48.907Z,49.18
2019-06-20T00:07:48.818Z,48.68
2019-06-20T00:08:49.181Z,47.99
2019-06-20T00:09:52.357Z,49.10
2019-06-20T00:10:48.765Z,49.51
2019-06-20T00:11:48.746Z,49.18
2019-06-20T00:13:00.020Z,49.21
2019-06-20T00:13:49.673Z,49.28
2019-06-20T00:14:48.740Z,50.00
2019-06-20T00:15:48.707Z,49.68
2019-06-20T00:16:48.692Z,50.08
2019-06-20T00:17:48.754Z,50.27
2019-06-20T00:18:48.689Z,51.40
2019-06-20T00:19:48.584Z,51.97
2019-06-20T00:20:48.593Z,52.37
2019-06-20T00:21:48.683Z,52.69
2019-06-20T00:22:48.570Z,53.29
2019-06-20T00:23:48.568Z,54.08
2019-06-20T00:24:48.619Z,53.09
2019-06-20T00:25:48.564Z,53.78
2019-06-20T00:26:48.552Z,53.91
2019-06-20T00:27:48.536Z,54.61
2019-06-20T00:28:48.568Z,55.31
2019-06-20T00:29:48.494Z,55.91
2019-06-20T00:30:48.505Z,56.90
2019-06-20T00:31:48.478Z,54.61
2019-06-20T00:32:48.476Z,54.61
2019-06-20T00:33:48.462Z,50.92
2019-06-20T00:34:48.452Z,52.51
2019-06-20T00:35:48.472Z,49.40
2019-06-20T00:36:51.271Z,45.82
2019-06-20T00:37:48.435Z,47.66
2019-06-20T00:38:48.420Z,48.07
2019-06-20T00:39:48.406Z,48.07
2019-06-20T00:40:48.416Z,45.97
2019-06-20T00:41:48.351Z,40.48
2019-06-20T00:42:48.422Z,46.42
2019-06-20T00:43:48.389Z,48.32
2019-06-20T00:44:48.375Z,48.71
2019-06-20T00:45:48.336Z,49.31
2019-06-20T00:46:48.326Z,51.10
2019-06-20T00:47:48.446Z,51.30
2019-06-20T00:48:48.360Z,50.23
2019-06-20T00:49:48.285Z,51.35
2019-06-20T00:50:48.299Z,51.25
2019-06-20T00:51:48.307Z,53.34
2019-06-20T00:52:49.077Z,52.94
2019-06-20T00:53:48.253Z,53.06
2019-06-20T00:54:48.255Z,53.66
2019-06-20T00:55:48.223Z,54.86
2019-06-20T00:56:48.256Z,54.75
2019-06-20T00:57:48.228Z,54.38
2019-06-20T00:58:48.198Z,55.48
2019-06-20T00:59:48.174Z,56.27
2019-06-20T01:00:48.221Z,56.98
2019-06-20T01:01:48.186Z,56.27
2019-06-20T01:02:48.173Z,56.40
2019-06-20T01:03:57.478Z,57.90
2019-06-20T01:04:57.316Z,56.70
2019-06-20T01:05:57.244Z,57.00
2019-06-20T01:06:56.752Z,57.80
2019-06-20T01:07:57.385Z,57.50
2019-06-20T01:08:58.594Z,57.82
2019-06-20T01:09:57.319Z,58.53
2019-06-20T01:10:57.371Z,58.85
2019-06-20T01:11:57.897Z,58.65
2019-06-20T01:12:55.989Z,58.45
2019-06-20T01:13:57.504Z,59.88
2019-06-20T01:14:57.584Z,60.58
2019-06-20T01:15:57.490Z,60.97
2019-06-20T01:16:48.033Z,61.00
2019-06-20T01:17:48.051Z,62.20
2019-06-20T01:18:47.976Z,61.71
2019-06-20T01:19:47.966Z,62.40
2019-06-20T01:20:47.997Z,60.83
2019-06-20T01:21:57.210Z,61.54
2019-06-20T01:22:47.986Z,62.23
2019-06-20T01:23:47.986Z,62.83
2019-06-20T01:24:47.981Z,62.86
2019-06-20T01:25:47.921Z,63.69
2019-06-20T01:26:47.892Z,63.69
2019-06-20T01:27:47.874Z,64.79
2019-06-20T01:28:47.922Z,65.22
2019-06-20T01:29:47.923Z,64.83
2019-06-20T01:30:47.841Z,65.95
2019-06-20T01:31:47.836Z,66.16
2019-06-20T01:32:47.817Z,66.05
2019-06-20T01:33:47.839Z,66.66
2019-06-20T01:34:47.824Z,67.25
2019-06-20T01:35:47.795Z,67.46
2019-06-20T01:36:47.775Z,67.49
2019-06-20T01:37:47.779Z,67.89
2019-06-20T01:38:47.795Z,68.39
2019-06-20T01:39:47.749Z,68.29
2019-06-20T01:40:47.751Z,68.19
2019-06-20T01:41:47.734Z,68.89
2019-06-20T01:42:47.742Z,69.29
2019-06-20T01:43:50.900Z,69.29
2019-06-20T01:44:47.707Z,69.82
2019-06-20T01:45:47.667Z,69.53
2019-06-20T01:46:47.656Z,69.53
2019-06-20T01:47:47.660Z,70.32
2019-06-20T01:48:47.695Z,70.12
2019-06-20T01:49:47.726Z,70.03
2019-06-20T01:50:47.612Z,71.03
2019-06-20T01:51:47.618Z,71.36
2019-06-20T01:52:47.612Z,71.56
2019-06-20T01:53:47.614Z,71.56
2019-06-20T01:54:47.615Z,71.86
2019-06-20T01:55:47.612Z,71.90
2019-06-20T01:56:47.581Z,72.00
2019-06-20T01:57:47.641Z,72.30
2019-06-20T01:58:47.548Z,72.40
2019-06-20T01:59:47.562Z,72.60
2019-06-20T02:00:47.545Z,72.60
2019-06-20T02:01:47.494Z,72.50
2019-06-20T02:02:47.502Z,72.60
2019-06-20T02:03:47.495Z,72.60
2019-06-20T02:04:47.501Z,73.03
2019-06-20T02:05:47.498Z,73.24
2019-06-20T02:06:47.454Z,73.44
2019-06-20T02:07:47.453Z,73.54
2019-06-20T02:08:47.435Z,73.54
2019-06-20T02:09:47.432Z,73.74
2019-06-20T02:10:47.444Z,73.74
2019-06-20T02:11:47.446Z,73.54
2019-06-20T02:12:47.387Z,73.54
2019-06-20T02:13:47.404Z,73.64
2019-06-20T02:14:47.389Z,73.64
2019-06-20T02:15:47.419Z,73.94
2019-06-20T02:16:47.410Z,74.18
2019-06-20T02:17:47.350Z,74.18
2019-06-20T02:18:47.342Z,74.27
2019-06-20T02:19:47.330Z,74.48
2019-06-20T02:20:47.321Z,74.57
2019-06-20T02:21:47.300Z,74.48
2019-06-20T02:22:47.310Z,74.77
2019-06-20T02:23:47.324Z,74.57
2019-06-20T02:24:47.307Z,74.77
2019-06-20T02:25:47.289Z,74.88
2019-06-20T02:26:47.272Z,75.18
2019-06-20T02:27:47.269Z,75.38
2019-06-20T02:28:47.219Z,75.08
2019-06-20T02:29:47.222Z,75.38
2019-06-20T02:30:47.255Z,75.11
2019-06-20T02:31:47.213Z,75.71
2019-06-20T02:32:47.283Z,75.78
2019-06-20T02:33:47.175Z,75.42
2019-06-20T02:34:47.218Z,75.82
2019-06-20T02:35:47.158Z,75.92
2019-06-20T02:36:47.161Z,75.92
2019-06-20T02:37:47.151Z,76.21
2019-06-20T02:38:47.139Z,76.42
2019-06-20T02:39:47.106Z,76.92
2019-06-20T02:40:47.119Z,76.52
2019-06-20T02:41:47.156Z,76.52
2019-06-20T02:42:47.074Z,76.86
2019-06-20T02:43:47.094Z,76.92
2019-06-20T02:44:47.073Z,77.26
2019-06-20T02:45:47.045Z,76.96
2019-06-20T02:46:47.024Z,77.56
2019-06-20T02:47:47.125Z,77.56
2019-06-20T02:48:47.011Z,77.16
2019-06-20T02:49:47.017Z,76.96
2019-06-20T02:50:47.018Z,77.26
2019-06-20T02:51:47.004Z,77.66
2019-06-20T02:52:46.996Z,77.66
2019-06-20T02:53:46.955Z,77.76
2019-06-20T02:54:46.979Z,77.86
2019-06-20T02:55:46.946Z,77.56
2019-06-20T02:56:47.002Z,77.96
2019-06-20T02:57:46.931Z,77.56
2019-06-20T02:58:46.928Z,77.42
2019-06-20T02:59:46.895Z,77.62
2019-06-20T03:00:46.906Z,77.62
2019-06-20T03:01:46.886Z,76.92
2019-06-20T03:02:46.857Z,77.52
2019-06-20T03:03:46.871Z,77.62
2019-06-20T03:04:46.832Z,76.72
2019-06-20T03:05:46.887Z,77.12
2019-06-20T03:06:46.822Z,77.02
2019-06-20T03:07:46.795Z,76.92
2019-06-20T03:08:46.806Z,76.82
2019-06-20T03:09:46.833Z,77.02
2019-06-20T03:10:46.791Z,77.19
2019-06-20T03:11:46.760Z,77.39
2019-06-20T03:12:46.790Z,77.39
2019-06-20T03:13:46.755Z,77.59
2019-06-20T03:14:46.729Z,77.69
2019-06-20T03:15:49.894Z,77.85
2019-06-20T03:16:46.740Z,77.95
2019-06-20T03:17:46.715Z,77.55
2019-06-20T03:18:46.712Z,77.25
2019-06-20T03:19:46.707Z,76.85
2019-06-20T03:20:46.670Z,77.05
2019-06-20T03:21:46.681Z,77.45
2019-06-20T03:22:46.652Z,77.75
2019-06-20T03:23:46.631Z,77.45
2019-06-20T03:24:46.658Z,77.55
2019-06-20T03:25:46.605Z,77.45
2019-06-20T03:26:46.639Z,77.75
2019-06-20T03:27:46.599Z,78.05
2019-06-20T03:28:46.590Z,78.15
2019-06-20T03:29:46.596Z,78.05
2019-06-20T03:30:46.575Z,77.95
2019-06-20T03:31:46.577Z,77.85
2019-06-20T03:32:46.558Z,78.29
2019-06-20T03:33:46.521Z,78.19
2019-06-20T03:34:46.517Z,77.99
2019-06-20T03:35:46.499Z,77.79
2019-06-20T03:36:46.508Z,77.79
2019-06-20T03:37:50.022Z,77.79
2019-06-20T03:38:46.487Z,77.89
2019-06-20T03:39:46.447Z,78.09
2019-06-20T03:40:46.464Z,77.99
2019-06-20T03:41:46.446Z,77.79
2019-06-20T03:42:46.443Z,77.99
2019-06-20T03:43:46.467Z,77.99
2019-06-20T03:45:01.218Z,78.09
2019-06-20T03:45:47.484Z,78.09
2019-06-20T03:46:46.402Z,78.19
2019-06-20T03:47:46.396Z,77.99
2019-06-20T03:48:46.369Z,77.69
2019-06-20T03:49:46.371Z,77.52
2019-06-20T03:50:46.347Z,77.92
2019-06-20T03:51:46.331Z,77.39
2019-06-20T03:52:46.386Z,77.83
2019-06-20T03:53:46.343Z,78.12
2019-06-20T03:54:47.053Z,78.22
2019-06-20T03:55:46.330Z,77.69
2019-06-20T03:56:46.300Z,77.59
2019-06-20T03:57:46.283Z,77.89
2019-06-20T03:58:46.297Z,77.28
2019-06-20T03:59:46.263Z,76.75
2019-06-20T04:00:46.252Z,76.85
2019-06-20T04:01:49.126Z,76.85
2019-06-20T04:02:46.227Z,77.25
2019-06-20T04:03:46.249Z,77.05
2019-06-20T04:04:46.193Z,76.65
2019-06-20T04:05:46.213Z,76.81
2019-06-20T04:06:46.215Z,76.71
2019-06-20T04:07:46.222Z,76.11
2019-06-20T04:08:46.185Z,76.51
2019-06-20T04:09:55.570Z,76.31
2019-06-20T04:10:46.107Z,75.67
2019-06-20T04:11:46.128Z,75.97
2019-06-20T04:12:46.108Z,75.60
2019-06-20T04:13:46.115Z,75.60
2019-06-20T04:14:48.994Z,75.37
2019-06-20T04:15:46.074Z,75.47
2019-06-20T04:16:46.068Z,75.27
2019-06-20T04:17:46.036Z,75.77
2019-06-20T04:18:46.102Z,75.27
2019-06-20T04:19:46.030Z,74.87
2019-06-20T04:20:46.045Z,75.07
2019-06-20T04:21:46.033Z,74.54
2019-06-20T04:22:46.023Z,74.33
2019-06-20T04:23:46.034Z,74.43
2019-06-20T04:24:45.972Z,74.03
2019-06-20T04:25:45.966Z,73.30
2019-06-20T04:26:45.955Z,73.19
2019-06-20T04:27:45.939Z,72.89
2019-06-20T04:28:45.941Z,73.00
2019-06-20T04:29:45.960Z,72.89
2019-06-20T04:30:45.968Z,73.00
2019-06-20T04:31:45.932Z,72.46
2019-06-20T04:32:45.938Z,72.46
2019-06-20T04:33:45.897Z,72.36
2019-06-20T04:34:45.888Z,71.46
2019-06-20T04:35:45.861Z,71.46
2019-06-20T04:36:48.074Z,70.86
2019-06-20T04:37:45.930Z,71.26
2019-06-20T04:38:45.815Z,70.76
2019-06-20T04:39:45.813Z,70.23
2019-06-20T04:40:45.791Z,70.03
2019-06-20T04:41:45.813Z,69.43
2019-06-20T04:42:45.792Z,69.73
2019-06-20T04:43:45.802Z,70.03
2019-06-20T04:44:45.762Z,70.62
2019-06-20T04:45:45.784Z,71.12
2019-06-20T04:46:45.768Z,70.83
2019-06-20T04:47:45.749Z,69.99
2019-06-20T04:48:45.737Z,69.79
2019-06-20T04:49:45.705Z,69.39
2019-06-20T04:50:45.694Z,69.49
2019-06-20T04:51:45.716Z,69.66
2019-06-20T04:52:45.683Z,69.56
2019-06-20T04:53:45.679Z,69.36
2019-06-20T04:54:45.723Z,69.26
2019-06-20T04:55:45.665Z,69.66
2019-06-20T04:56:45.665Z,69.06
2019-06-20T04:57:45.726Z,69.13
2019-06-20T04:58:45.662Z,69.53
2019-06-20T04:59:45.653Z,69.06
2019-06-20T05:00:45.609Z,68.23
2019-06-20T05:01:45.772Z,67.99
2019-06-20T05:02:45.597Z,68.03
2019-06-20T05:03:45.844Z,68.40
2019-06-20T05:04:46.494Z,67.76
2019-06-20T05:05:45.554Z,67.76
2019-06-20T05:06:45.532Z,66.77
2019-06-20T05:07:45.554Z,66.63
2019-06-20T05:08:45.535Z,65.73
2019-06-20T05:09:45.564Z,64.81
2019-06-20T05:10:45.514Z,64.41
2019-06-20T05:11:45.494Z,63.68
2019-06-20T05:12:45.475Z,63.58
2019-06-20T05:13:45.527Z,62.59
2019-06-20T05:14:45.515Z,62.26
2019-06-20T05:15:52.566Z,60.26
2019-06-20T05:16:46.451Z,60.93
2019-06-20T05:17:45.466Z,60.24
2019-06-20T05:18:45.440Z,60.63
2019-06-20T05:19:45.516Z,60.93
2019-06-20T05:20:45.394Z,60.21
2019-06-20T05:21:45.417Z,60.03
2019-06-20T05:22:45.759Z,61.13
2019-06-20T05:23:45.388Z,60.93
2019-06-20T05:24:45.437Z,59.96
2019-06-20T05:25:45.390Z,60.46
2019-06-20T05:26:45.327Z,61.06
2019-06-20T05:27:45.999Z,60.96
2019-06-20T05:28:45.383Z,60.56
2019-06-20T05:29:45.355Z,60.49
2019-06-20T05:30:45.353Z,60.29
2019-06-20T05:31:45.292Z,60.09
2019-06-20T05:32:45.444Z,60.49
2019-06-20T05:33:45.268Z,60.99
2019-06-20T05:34:45.248Z,60.49
2019-06-20T05:35:45.254Z,61.09
2019-06-20T05:36:45.245Z,61.19
2019-06-20T05:37:45.232Z,60.89
2019-06-20T05:38:45.209Z,61.91
2019-06-20T05:39:45.211Z,62.21
2019-06-20T05:40:45.181Z,62.31
2019-06-20T05:41:45.206Z,62.01
2019-06-20T05:42:45.191Z,62.71
2019-06-20T05:43:45.143Z,62.51
2019-06-20T05:44:45.161Z,62.51
2019-06-20T05:45:48.529Z,62.21
2019-06-20T05:46:45.172Z,62.51
2019-06-20T05:47:55.623Z,63.54
2019-06-20T05:48:45.120Z,63.81
2019-06-20T05:49:45.121Z,63.81
2019-06-20T05:50:45.102Z,64.04
2019-06-20T05:51:45.074Z,63.84
2019-06-20T05:52:45.160Z,63.74
2019-06-20T05:53:54.165Z,64.04
2019-06-20T05:54:45.018Z,63.44
2019-06-20T05:55:45.038Z,63.24
2019-06-20T05:56:44.995Z,63.74
2019-06-20T05:57:45.032Z,63.64
2019-06-20T05:58:45.974Z,63.91
2019-06-20T05:59:45.035Z,63.71
2019-06-20T06:00:45.075Z,63.61
2019-06-20T06:01:44.958Z,64.01
2019-06-20T06:02:54.221Z,63.51
2019-06-20T06:03:44.925Z,63.98
2019-06-20T06:04:44.943Z,63.08
2019-06-20T06:05:44.924Z,62.38
2019-06-20T06:06:44.999Z,62.68
2019-06-20T06:07:44.891Z,62.29
2019-06-20T06:08:44.982Z,62.18
2019-06-20T06:09:45.718Z,62.38
2019-06-20T06:10:44.863Z,62.08
2019-06-20T06:11:44.858Z,61.79
2019-06-20T06:12:46.325Z,62.08
2019-06-20T06:13:44.821Z,62.29
2019-06-20T06:14:44.823Z,62.38
2019-06-20T06:15:44.890Z,61.99
2019-06-20T06:16:44.785Z,61.88
2019-06-20T06:17:44.800Z,62.38
2019-06-20T06:18:44.917Z,62.38
2019-06-20T06:19:44.782Z,62.29
2019-06-20T06:20:45.117Z,63.08
2019-06-20T06:21:44.803Z,63.98
2019-06-20T06:22:44.943Z,64.37
2019-06-20T06:23:44.746Z,64.81
2019-06-20T06:24:44.715Z,65.70
2019-06-20T06:25:44.849Z,65.61
2019-06-20T06:26:44.813Z,65.64
2019-06-20T06:27:44.713Z,65.94
2019-06-20T06:28:44.691Z,66.83
2019-06-20T06:29:44.699Z,67.23
2019-06-20T06:30:44.658Z,67.66
2019-06-20T06:31:44.695Z,67.86
2019-06-20T06:32:44.667Z,68.89
2019-06-20T06:33:44.647Z,68.89
2019-06-20T06:34:44.605Z,67.49
2019-06-20T06:35:44.588Z,67.93
2019-06-20T06:36:44.657Z,69.23
2019-06-20T06:37:44.587Z,69.53
2019-06-20T06:38:44.639Z,69.43
2019-06-20T06:39:44.726Z,70.66
2019-06-20T06:40:44.558Z,70.56
2019-06-20T06:41:44.768Z,71.06
2019-06-20T06:42:44.621Z,71.09
2019-06-20T06:43:44.529Z,71.09
2019-06-20T06:44:44.504Z,71.62
2019-06-20T06:45:44.506Z,71.33
2019-06-20T06:46:53.276Z,71.03
2019-06-20T06:47:45.533Z,71.03
2019-06-20T06:48:44.523Z,71.03
2019-06-20T06:49:45.146Z,71.33
2019-06-20T06:50:44.502Z,72.42
2019-06-20T06:51:44.435Z,71.92
2019-06-20T06:52:44.502Z,72.33
2019-06-20T06:53:44.387Z,71.66
2019-06-20T06:54:44.428Z,72.06
2019-06-20T06:55:44.405Z,71.96
2019-06-20T06:56:44.378Z,72.46
2019-06-20T06:57:44.459Z,72.66
2019-06-20T06:58:44.363Z,73.10
2019-06-20T06:59:44.405Z,74.00
2019-06-20T07:00:44.333Z,74.84
2019-06-20T07:01:44.345Z,75.84
2019-06-20T07:02:44.322Z,76.28
2019-06-20T07:03:44.347Z,76.87
2019-06-20T07:04:44.297Z,77.48
2019-06-20T07:05:44.294Z,77.98
2019-06-20T07:06:45.129Z,78.18
2019-06-20T07:07:44.297Z,78.58
2019-06-20T07:08:44.288Z,79.72
2019-06-20T07:09:44.254Z,80.92
2019-06-20T07:10:44.231Z,80.82
2019-06-20T07:11:44.240Z,80.62
2019-06-20T07:12:44.232Z,81.42
2019-06-20T07:13:44.237Z,80.52
2019-06-20T07:14:44.192Z,80.02
2019-06-20T07:15:44.187Z,80.82
2019-06-20T07:16:59.460Z,81.12
2019-06-20T07:17:45.503Z,80.76
2019-06-20T07:18:44.220Z,81.42
2019-06-20T07:19:44.122Z,80.72
2019-06-20T07:20:44.149Z,80.82
2019-06-20T07:21:44.137Z,81.23
2019-06-20T07:22:44.331Z,80.72
2019-06-20T07:23:44.135Z,80.48
2019-06-20T07:24:44.285Z,80.58
2019-06-20T07:25:44.097Z,80.18
2019-06-20T07:26:44.123Z,79.54
2019-06-20T07:27:44.069Z,79.80
2019-06-20T07:28:44.047Z,77.74
2019-06-20T07:29:44.073Z,78.60
2019-06-20T07:30:44.005Z,77.70
2019-06-20T07:31:44.038Z,77.91
2019-06-20T07:32:43.988Z,77.36
2019-06-20T07:33:44.174Z,77.26
2019-06-20T07:34:44.042Z,77.70
2019-06-20T07:35:44.211Z,77.36
2019-06-20T07:36:43.959Z,77.67
2019-06-20T07:37:43.943Z,77.36
2019-06-20T07:38:44.053Z,77.26
2019-06-20T07:39:43.952Z,76.56
2019-06-20T07:40:43.916Z,76.46
2019-06-20T07:41:45.203Z,76.56
2019-06-20T07:42:43.948Z,76.97
2019-06-20T07:43:43.887Z,74.93
2019-06-20T07:44:43.984Z,75.43
2019-06-20T07:46:01.194Z,75.02
2019-06-20T07:46:44.930Z,75.02
2019-06-20T07:47:43.900Z,75.52
2019-06-20T07:48:44.210Z,75.52
2019-06-20T07:49:44.646Z,73.86
2019-06-20T07:50:43.977Z,74.53
2019-06-20T07:51:43.810Z,74.73
2019-06-20T07:52:57.763Z,75.33
2019-06-20T07:53:44.774Z,75.73
2019-06-20T07:54:43.847Z,75.02
2019-06-20T07:55:43.805Z,74.59
2019-06-20T07:56:43.797Z,73.86
2019-06-20T07:57:43.787Z,73.75
2019-06-20T07:58:43.741Z,73.36
2019-06-20T07:59:43.712Z,73.02
2019-06-20T08:00:43.706Z,72.92
2019-06-20T08:01:43.756Z,71.12
2019-06-20T08:02:43.705Z,71.09
2019-06-20T08:03:45.261Z,70.49
2019-06-20T08:04:43.669Z,71.26
2019-06-20T08:05:43.651Z,70.36
2019-06-20T08:06:43.733Z,71.02
2019-06-20T08:07:43.709Z,69.53
2019-06-20T08:08:43.692Z,69.56
2019-06-20T08:09:45.094Z,70.19
2019-06-20T08:10:43.594Z,70.76
2019-06-20T08:11:43.595Z,70.06
2019-06-20T08:12:43.604Z,69.26
2019-06-20T08:13:43.589Z,69.99
2019-06-20T08:14:43.553Z,69.66
2019-06-20T08:15:43.584Z,69.06
2019-06-20T08:16:43.566Z,69.26
2019-06-20T08:17:43.567Z,69.53
2019-06-20T08:18:43.537Z,68.53
2019-06-20T08:19:43.534Z,68.63
2019-06-20T08:20:43.563Z,68.60
2019-06-20T08:21:44.179Z,68.40
2019-06-20T08:22:43.526Z,67.40
2019-06-20T08:23:43.486Z,68.49
2019-06-20T08:24:43.497Z,68.16
2019-06-20T08:25:43.448Z,67.60
2019-06-20T08:26:43.485Z,68.07
2019-06-20T08:27:43.422Z,67.66
2019-06-20T08:28:43.463Z,67.36
2019-06-20T08:29:43.390Z,67.43
2019-06-20T08:30:43.396Z,66.41
2019-06-20T08:31:43.386Z,65.88
2019-06-20T08:32:43.367Z,65.98
2019-06-20T08:33:43.369Z,66.77
2019-06-20T08:34:43.547Z,66.38
2019-06-20T08:35:43.365Z,65.58
2019-06-20T08:36:43.314Z,65.68
2019-06-20T08:37:43.494Z,65.45
2019-06-20T08:38:43.374Z,64.85
2019-06-20T08:39:43.351Z,64.55
2019-06-20T08:40:43.281Z,63.36
2019-06-20T08:41:43.268Z,63.73
2019-06-20T08:42:43.520Z,64.15
2019-06-20T08:43:43.333Z,63.39
2019-06-20T08:44:43.385Z,64.39
2019-06-20T08:45:43.273Z,63.98
2019-06-20T08:46:43.226Z,64.48
2019-06-20T08:47:43.354Z,64.48
2019-06-20T08:48:43.293Z,64.18
2019-06-20T08:49:43.193Z,63.13
2019-06-20T08:50:43.220Z,63.33
2019-06-20T08:51:43.220Z,63.46
2019-06-20T08:52:43.195Z,64.58
2019-06-20T08:53:43.171Z,64.28
2019-06-20T08:54:43.154Z,62.53
2019-06-20T08:55:43.204Z,61.74
2019-06-20T08:56:43.152Z,60.12
2019-06-20T08:57:43.352Z,60.09
2019-06-20T08:58:43.122Z,59.69
2019-06-20T08:59:43.110Z,59.86
2019-06-20T09:00:43.096Z,59.27
2019-06-20T09:01:43.815Z,58.44
2019-06-20T09:02:43.100Z,59.56
2019-06-20T09:03:43.030Z,59.23
2019-06-20T09:04:43.049Z,58.32
2019-06-20T09:05:43.032Z,58.84
2019-06-20T09:06:43.043Z,58.22
2019-06-20T09:07:43.782Z,58.19
2019-06-20T09:08:43.011Z,58.42
2019-06-20T09:09:43.003Z,58.51
2019-06-20T09:10:43.008Z,59.04
2019-06-20T09:11:42.946Z,59.86
2019-06-20T09:12:42.976Z,59.99
2019-06-20T09:13:43.005Z,60.84
2019-06-20T09:14:42.937Z,62.07
2019-06-20T09:15:42.911Z,62.69
2019-06-20T09:16:42.938Z,63.09
2019-06-20T09:17:42.917Z,62.69
2019-06-20T09:18:43.263Z,62.62
2019-06-20T09:19:42.880Z,63.02
2019-06-20T09:20:42.953Z,62.52
2019-06-20T09:21:43.813Z,63.52
2019-06-20T09:22:42.917Z,64.12
2019-06-20T09:23:43.061Z,64.61
2019-06-20T09:24:42.870Z,64.42
2019-06-20T09:25:42.822Z,64.61
2019-06-20T09:26:42.833Z,64.28
2019-06-20T09:27:42.871Z,63.49
2019-06-20T09:28:42.940Z,63.09
2019-06-20T09:29:42.917Z,63.62
2019-06-20T09:30:42.820Z,64.12
2019-06-20T09:31:42.873Z,63.32
2019-06-20T09:32:42.841Z,64.72
2019-06-20T09:33:42.750Z,63.32
2019-06-20T09:34:42.813Z,62.62
2019-06-20T09:35:42.699Z,62.42
2019-06-20T09:36:42.908Z,61.57
2019-06-20T09:37:43.000Z,60.35
2019-06-20T09:38:43.453Z,59.82
2019-06-20T09:39:42.665Z,59.59
2019-06-20T09:40:42.668Z,58.80
2019-06-20T09:41:42.770Z,59.82
2019-06-20T09:42:43.147Z,60.31
2019-06-20T09:43:42.755Z,60.12
2019-06-20T09:44:42.679Z,60.55
2019-06-20T09:45:42.604Z,61.01
2019-06-20T09:46:42.861Z,61.41
2019-06-20T09:47:42.783Z,61.51
2019-06-20T09:48:42.899Z,61.51
2019-06-20T09:49:42.682Z,61.61
2019-06-20T09:50:42.951Z,60.91
2019-06-20T09:51:42.876Z,60.09
2019-06-20T09:52:43.207Z,60.36
2019-06-20T09:53:42.970Z,59.56
2019-06-20T09:54:42.587Z,59.66
2019-06-20T09:55:42.515Z,59.89
2019-06-20T09:56:42.822Z,60.69
2019-06-20T09:57:54.043Z,60.69
2019-06-20T09:58:42.489Z,59.89
2019-06-20T10:00:02.713Z,60.75
2019-06-20T10:00:43.500Z,60.16
2019-06-20T10:03:34.090Z,58.54
2019-06-20T10:07:13.944Z,58.22
2019-06-20T10:08:22.077Z,57.82
2019-06-20T10:12:06.180Z,58.32
2019-06-20T10:18:01.012Z,57.97
2019-06-20T10:19:00.852Z,57.57
2019-06-20T10:20:00.901Z,58.06
2019-06-20T10:21:00.859Z,58.26
2019-06-20T10:22:01.208Z,59.41
2019-06-20T10:23:00.739Z,60.00
2019-06-20T10:24:00.682Z,59.61
2019-06-20T10:25:00.688Z,60.30
2019-06-20T10:26:00.723Z,60.10
2019-06-20T10:27:00.717Z,60.00
2019-06-20T10:28:01.238Z,59.34
2019-06-20T10:29:00.689Z,58.22
2019-06-20T10:30:13.540Z,58.72
2019-06-20T10:31:01.800Z,58.81
2019-06-20T10:32:00.647Z,59.31
2019-06-20T10:33:00.638Z,60.03
2019-06-20T10:34:00.618Z,60.56
2019-06-20T10:35:00.955Z,59.96
2019-06-20T10:36:00.611Z,60.46
2019-06-20T10:37:00.617Z,59.93
2019-06-20T10:38:00.754Z,59.83
2019-06-20T10:39:00.598Z,59.63
2019-06-20T10:40:00.593Z,60.33
2019-06-20T10:41:00.566Z,57.45
2019-06-20T10:42:00.683Z,58.04
2019-06-20T10:43:00.548Z,57.75
2019-06-20T10:44:00.501Z,57.53
2019-06-20T10:45:00.530Z,57.42
2019-06-20T10:46:00.488Z,57.85
2019-06-20T10:47:00.478Z,57.62
2019-06-20T10:48:00.442Z,56.63
2019-06-20T10:49:00.588Z,55.41
2019-06-20T10:50:00.471Z,54.99
2019-06-20T10:51:00.412Z,54.39
2019-06-20T10:52:00.592Z,54.37
2019-06-20T10:53:00.442Z,54.67
2019-06-20T10:54:00.396Z,52.86
2019-06-20T10:55:00.560Z,53.55
2019-06-20T10:56:00.370Z,53.25
2019-06-20T10:57:00.558Z,53.16
2019-06-20T10:58:00.404Z,53.16
2019-06-20T10:59:00.326Z,53.72
2019-06-20T11:00:00.307Z,53.53
2019-06-20T11:01:00.370Z,52.64
2019-06-20T11:02:00.657Z,53.60
2019-06-20T11:03:00.409Z,52.91
2019-06-20T11:04:00.336Z,53.57
2019-06-20T11:05:00.415Z,52.98
2019-06-20T11:06:00.285Z,53.28
2019-06-20T11:07:00.242Z,52.69
2019-06-20T11:08:00.469Z,51.10
2019-06-20T11:09:00.252Z,51.00
2019-06-20T11:10:00.366Z,51.50
2019-06-20T11:11:00.249Z,51.79
2019-06-20T11:12:01.359Z,51.13
2019-06-20T11:13:00.211Z,51.54
2019-06-20T11:14:00.177Z,51.75
2019-06-20T11:15:00.535Z,51.65
2019-06-20T11:16:00.301Z,51.65
2019-06-20T11:17:00.157Z,52.44
2019-06-20T11:18:00.159Z,52.26
2019-06-20T11:19:00.160Z,51.65
2019-06-20T11:20:00.176Z,51.75
2019-06-20T11:21:00.100Z,51.25
2019-06-20T11:22:00.122Z,51.45
2019-06-20T11:23:00.328Z,51.57
2019-06-20T11:24:00.142Z,51.67
2019-06-20T11:25:00.156Z,51.37
2019-06-20T11:26:00.229Z,52.17
2019-06-20T11:27:00.035Z,52.76
2019-06-20T11:27:59.999Z,52.46
2019-06-20T11:29:00.019Z,51.87
2019-06-20T11:30:00.050Z,52.24
2019-06-20T11:31:00.582Z,52.66
2019-06-20T11:31:59.962Z,52.86
2019-06-20T11:32:59.954Z,52.54
2019-06-20T11:33:59.954Z,51.65
2019-06-20T11:34:59.962Z,51.54
2019-06-20T11:35:59.967Z,51.15
2019-06-20T11:36:59.989Z,49.54
2019-06-20T11:37:59.942Z,49.84
2019-06-20T11:38:59.933Z,50.13
2019-06-20T11:39:59.904Z,49.52
2019-06-20T11:40:59.951Z,48.63
2019-06-20T11:41:59.919Z,49.44
2019-06-20T11:42:59.864Z,48.73
2019-06-20T11:43:59.865Z,48.73
2019-06-20T11:44:59.855Z,47.42
2019-06-20T11:45:59.841Z,47.79
2019-06-20T11:46:59.844Z,47.18
2019-06-20T11:47:59.844Z,47.28
2019-06-20T11:48:59.803Z,47.38
2019-06-20T11:49:59.852Z,47.28
2019-06-20T11:50:59.790Z,45.89
2019-06-20T11:51:59.861Z,46.48
2019-06-20T11:52:59.765Z,46.09
2019-06-20T11:53:59.786Z,45.40
2019-06-20T11:54:59.720Z,45.70
2019-06-20T11:55:59.725Z,46.51
2019-06-20T11:56:59.761Z,45.82
2019-06-20T11:57:59.730Z,47.20
2019-06-20T11:58:59.685Z,46.61
2019-06-20T11:59:59.679Z,46.81
2019-06-20T12:01:03.943Z,46.91
2019-06-20T12:02:00.024Z,47.30
2019-06-20T12:02:59.709Z,47.20
2019-06-20T12:03:59.653Z,47.40
2019-06-20T12:04:59.652Z,47.20
2019-06-20T12:05:59.658Z,47.79
2019-06-20T12:07:00.528Z,45.94
2019-06-20T12:07:59.653Z,45.52
2019-06-20T12:08:59.595Z,45.52
2019-06-20T12:09:59.733Z,45.13
2019-06-20T12:10:59.575Z,45.64
2019-06-20T12:11:59.568Z,45.42
2019-06-20T12:12:59.581Z,45.30
2019-06-20T12:13:59.562Z,44.81
2019-06-20T12:14:59.511Z,45.30
2019-06-20T12:15:59.585Z,45.50
2019-06-20T12:16:59.507Z,44.89
2019-06-20T12:17:59.534Z,44.98
2019-06-20T12:19:00.028Z,44.89
2019-06-20T12:19:59.494Z,44.76
2019-06-20T12:20:59.489Z,44.94
2019-06-20T12:21:59.612Z,44.84
2019-06-20T12:22:59.472Z,44.51
2019-06-20T12:23:59.792Z,41.90
2019-06-20T12:24:59.465Z,42.20
2019-06-20T12:25:59.802Z,42.35
2019-06-20T12:26:59.516Z,40.55
2019-06-20T12:27:59.437Z,41.21
2019-06-20T12:28:59.423Z,39.03
2019-06-20T12:29:59.418Z,39.98
2019-06-20T12:30:59.357Z,38.20
2019-06-20T12:31:59.448Z,39.45
2019-06-20T12:32:59.575Z,38.08
2019-06-20T12:33:59.832Z,37.87
2019-06-20T12:34:59.605Z,39.31
2019-06-20T12:35:59.351Z,37.95
2019-06-20T12:36:59.327Z,37.57
2019-06-20T12:37:59.309Z,38.29
2019-06-20T12:38:59.524Z,38.60
2019-06-20T12:40:00.243Z,38.62
2019-06-20T12:40:59.296Z,38.13
2019-06-20T12:41:59.316Z,38.54
2019-06-20T12:42:59.282Z,38.15
2019-06-20T12:43:59.454Z,38.56
2019-06-20T12:44:59.324Z,39.06
2019-06-20T12:45:59.452Z,38.85
2019-06-20T12:46:59.301Z,39.14
2019-06-20T12:47:59.733Z,37.94
2019-06-20T12:48:59.266Z,39.82
2019-06-20T12:49:59.221Z,39.43
2019-06-20T12:50:59.197Z,38.74
2019-06-20T12:51:59.407Z,39.74
2019-06-20T12:52:59.303Z,39.62
2019-06-20T12:53:59.614Z,40.00
2019-06-20T12:54:59.334Z,39.98
2019-06-20T12:55:59.220Z,39.31
2019-06-20T12:56:59.117Z,38.51
2019-06-20T12:57:59.095Z,38.12
2019-06-20T12:58:59.256Z,38.35
2019-06-20T12:59:59.106Z,37.43
2019-06-20T13:00:59.309Z,37.70
2019-06-20T13:01:59.224Z,35.78
2019-06-20T13:02:59.168Z,34.29
2019-06-20T13:03:59.180Z,34.35
2019-06-20T13:04:59.063Z,33.20